createdAt,value
2018-11-07T00:00:41.214Z,988.77
2018-11-07T00:01:41.166Z,988.79
2018-11-07T00:02:41.155Z,988.78
2018-11-07T00:03:41.122Z,988.81
2018-11-07T00:04:41.115Z,988.82
2018-11-07T00:05:41.077Z,988.82
2018-11-07T00:06:41.051Z,988.80
2018-11-07T00:07:41.075Z,988.81
2018-11-07T00:08:41.012Z,988.81
2018-11-07T00:09:40.996Z,988.82
2018-11-07T00:10:40.967Z,988.78
2018-11-07T00:11:40.944Z,988.82
2018-11-07T00:12:40.938Z,988.78
2018-11-07T00:13:40.897Z,988.80
2018-11-07T00:14:40.874Z,988.84
2018-11-07T00:15:40.874Z,988.84
2018-11-07T00:16:40.835Z,988.80
2018-11-07T00:17:40.806Z,988.82
2018-11-07T00:18:40.780Z,988.84
2018-11-07T00:19:40.760Z,988.84
2018-11-07T00:20:40.752Z,988.81
2018-11-07T00:21:40.720Z,988.76
2018-11-07T00:22:40.690Z,988.69
2018-11-07T00:23:40.675Z,988.70
2018-11-07T00:24:40.649Z,988.68
2018-11-07T00:25:40.624Z,988.65
2018-11-07T00:26:40.598Z,988.67
2018-11-07T00:27:40.582Z,988.63
2018-11-07T00:28:40.558Z,988.66
2018-11-07T00:29:40.530Z,988.68
2018-11-07T00:30:40.512Z,988.72
2018-11-07T00:31:40.489Z,988.75
2018-11-07T00:32:40.467Z,988.81
2018-11-07T00:33:40.444Z,988.81
2018-11-07T00:34:40.415Z,988.84
2018-11-07T00:35:40.393Z,988.91
2018-11-07T00:36:40.402Z,988.90
2018-11-07T00:37:40.367Z,988.86
2018-11-07T00:38:40.362Z,988.88
2018-11-07T00:39:40.312Z,988.85
2018-11-07T00:40:40.300Z,988.80
2018-11-07T00:41:40.764Z,988.78
2018-11-07T00:42:40.237Z,988.77
2018-11-07T00:43:40.212Z,988.77
2018-11-07T00:44:40.203Z,988.80
2018-11-07T00:45:40.167Z,988.82
2018-11-07T00:46:40.159Z,988.81
2018-11-07T00:47:40.126Z,988.72
2018-11-07T00:48:40.110Z,988.71
2018-11-07T00:49:40.081Z,988.70
2018-11-07T00:50:40.081Z,988.73
2018-11-07T00:51:40.050Z,988.75
2018-11-07T00:52:40.018Z,988.78
2018-11-07T00:53:40.030Z,988.72
2018-11-07T00:54:39.969Z,988.74
2018-11-07T00:55:39.944Z,988.70
2018-11-07T00:56:39.921Z,988.73
2018-11-07T00:57:39.912Z,988.69
2018-11-07T00:58:39.880Z,988.72
2018-11-07T00:59:39.848Z,988.69
2018-11-07T01:00:39.830Z,988.66
2018-11-07T01:01:39.802Z,988.69
2018-11-07T01:02:39.778Z,988.68
2018-11-07T01:03:39.759Z,988.66
2018-11-07T01:04:39.740Z,988.67
2018-11-07T01:05:39.720Z,988.75
2018-11-07T01:06:39.690Z,988.73
2018-11-07T01:07:39.667Z,988.69
2018-11-07T01:08:39.647Z,988.65
2018-11-07T01:09:39.822Z,988.69
2018-11-07T01:10:39.606Z,988.65
2018-11-07T01:11:39.586Z,988.62
2018-11-07T01:12:39.551Z,988.63
2018-11-07T01:13:39.535Z,988.63
2018-11-07T01:14:39.509Z,988.60
2018-11-07T01:15:39.503Z,988.60
2018-11-07T01:16:39.520Z,988.63
2018-11-07T01:17:39.450Z,988.64
2018-11-07T01:18:39.421Z,988.65
2018-11-07T01:19:39.395Z,988.67
2018-11-07T01:20:39.380Z,988.66
2018-11-07T01:21:39.351Z,988.68
2018-11-07T01:22:39.333Z,988.69
2018-11-07T01:23:39.315Z,988.72
2018-11-07T01:24:39.277Z,988.74
2018-11-07T01:25:39.252Z,988.74
2018-11-07T01:26:39.233Z,988.70
2018-11-07T01:27:39.214Z,988.74
2018-11-07T01:28:39.204Z,988.75
2018-11-07T01:29:39.163Z,988.70
2018-11-07T01:30:39.160Z,988.70
2018-11-07T01:31:39.118Z,988.70
2018-11-07T01:32:39.096Z,988.75
2018-11-07T01:33:39.077Z,988.70
2018-11-07T01:34:39.050Z,988.73
2018-11-07T01:35:39.022Z,988.77
2018-11-07T01:36:39.008Z,988.76
2018-11-07T01:37:38.980Z,988.78
2018-11-07T01:38:38.966Z,988.82
2018-11-07T01:39:38.947Z,988.79
2018-11-07T01:40:38.913Z,988.83
2018-11-07T01:41:38.887Z,988.77
2018-11-07T01:42:38.859Z,988.79
2018-11-07T01:43:38.843Z,988.79
2018-11-07T01:44:38.821Z,988.77
2018-11-07T01:45:38.802Z,988.81
2018-11-07T01:46:38.770Z,988.81
2018-11-07T01:47:38.753Z,988.82
2018-11-07T01:48:38.731Z,988.80
2018-11-07T01:49:38.702Z,988.81
2018-11-07T01:50:38.680Z,988.80
2018-11-07T01:51:38.657Z,988.77
2018-11-07T01:52:38.644Z,988.77
2018-11-07T01:53:38.612Z,988.76
2018-11-07T01:54:38.593Z,988.70
2018-11-07T01:55:38.568Z,988.67
2018-11-07T01:56:38.541Z,988.72
2018-11-07T01:57:38.548Z,988.71
2018-11-07T01:58:38.500Z,988.76
2018-11-07T01:59:38.491Z,988.76
2018-11-07T02:00:38.472Z,988.79
2018-11-07T02:01:38.441Z,988.83
2018-11-07T02:02:38.416Z,988.82
2018-11-07T02:03:38.388Z,988.80
2018-11-07T02:04:38.371Z,988.81
2018-11-07T02:05:38.349Z,988.72
2018-11-07T02:06:38.330Z,988.68
2018-11-07T02:07:38.301Z,988.70
2018-11-07T02:08:38.285Z,988.71
2018-11-07T02:09:38.264Z,988.72
2018-11-07T02:10:38.234Z,988.77
2018-11-07T02:11:38.220Z,988.77
2018-11-07T02:12:38.195Z,988.79
2018-11-07T02:13:38.176Z,988.75
2018-11-07T02:14:38.151Z,988.72
2018-11-07T02:15:38.137Z,988.70
2018-11-07T02:16:38.109Z,988.73
2018-11-07T02:17:38.090Z,988.70
2018-11-07T02:18:38.072Z,988.63
2018-11-07T02:19:38.047Z,988.62
2018-11-07T02:20:38.022Z,988.63
2018-11-07T02:21:37.996Z,988.65
2018-11-07T02:22:37.984Z,988.68
2018-11-07T02:23:37.962Z,988.64
2018-11-07T02:24:37.938Z,988.63
2018-11-07T02:25:37.910Z,988.61
2018-11-07T02:26:37.894Z,988.62
2018-11-07T02:27:37.881Z,988.60
2018-11-07T02:28:37.851Z,988.58
2018-11-07T02:29:37.842Z,988.56
2018-11-07T02:30:37.800Z,988.55
2018-11-07T02:31:37.787Z,988.57
2018-11-07T02:32:37.761Z,988.56
2018-11-07T02:33:37.739Z,988.58
2018-11-07T02:34:37.723Z,988.55
2018-11-07T02:35:37.697Z,988.56
2018-11-07T02:36:37.679Z,988.60
2018-11-07T02:37:37.659Z,988.60
2018-11-07T02:38:37.631Z,988.60
2018-11-07T02:39:37.612Z,988.58
2018-11-07T02:40:37.590Z,988.53
2018-11-07T02:41:37.591Z,988.53
2018-11-07T02:42:37.548Z,988.47
2018-11-07T02:43:37.522Z,988.49
2018-11-07T02:44:37.497Z,988.44
2018-11-07T02:45:37.477Z,988.40
2018-11-07T02:46:37.462Z,988.40
2018-11-07T02:47:37.443Z,988.40
2018-11-07T02:48:37.414Z,988.41
2018-11-07T02:49:37.391Z,988.39
2018-11-07T02:50:37.385Z,988.41
2018-11-07T02:51:37.349Z,988.46
2018-11-07T02:52:37.326Z,988.46
2018-11-07T02:53:37.320Z,988.50
2018-11-07T02:54:37.292Z,988.57
2018-11-07T02:55:37.260Z,988.57
2018-11-07T02:56:37.247Z,988.55
2018-11-07T02:57:37.216Z,988.59
2018-11-07T02:58:37.200Z,988.64
2018-11-07T02:59:37.174Z,988.67
2018-11-07T03:00:37.153Z,988.68
2018-11-07T03:01:37.139Z,988.69
2018-11-07T03:02:37.107Z,988.73
2018-11-07T03:03:37.094Z,988.76
2018-11-07T03:04:37.068Z,988.76
2018-11-07T03:05:37.064Z,988.84
2018-11-07T03:06:37.016Z,988.84
2018-11-07T03:07:36.996Z,988.77
2018-11-07T03:08:36.974Z,988.80
2018-11-07T03:09:36.956Z,988.81
2018-11-07T03:10:37.057Z,988.83
2018-11-07T03:11:36.913Z,988.81
2018-11-07T03:12:36.905Z,988.82
2018-11-07T03:13:36.869Z,988.77
2018-11-07T03:14:46.366Z,988.76
2018-11-07T03:15:36.829Z,988.80
2018-11-07T03:16:36.808Z,988.78
2018-11-07T03:17:36.792Z,988.75
2018-11-07T03:18:36.760Z,988.80
2018-11-07T03:19:36.727Z,988.78
2018-11-07T03:20:36.713Z,988.79
2018-11-07T03:21:36.690Z,988.77
2018-11-07T03:22:36.689Z,988.85
2018-11-07T03:23:36.640Z,988.82
2018-11-07T03:24:36.638Z,988.86
2018-11-07T03:25:36.590Z,988.83
2018-11-07T03:26:36.570Z,988.90
2018-11-07T03:27:36.557Z,988.85
2018-11-07T03:28:36.538Z,988.83
2018-11-07T03:29:36.513Z,988.88
2018-11-07T03:30:36.478Z,988.84
2018-11-07T03:31:36.460Z,988.84
2018-11-07T03:32:36.425Z,988.86
2018-11-07T03:33:36.422Z,988.90
2018-11-07T03:34:36.403Z,988.93
2018-11-07T03:35:36.373Z,988.95
2018-11-07T03:36:36.342Z,988.95
2018-11-07T03:37:36.319Z,989.01
2018-11-07T03:38:36.303Z,989.03
2018-11-07T03:39:36.291Z,989.00
2018-11-07T03:40:36.254Z,989.01
2018-11-07T03:41:36.226Z,988.95
2018-11-07T03:42:36.203Z,988.99
2018-11-07T03:43:36.184Z,988.98
2018-11-07T03:44:36.164Z,988.99
2018-11-07T03:45:36.159Z,989.00
2018-11-07T03:46:36.126Z,988.98
2018-11-07T03:47:36.088Z,988.99
2018-11-07T03:48:36.068Z,988.97
2018-11-07T03:49:36.052Z,988.95
2018-11-07T03:50:36.030Z,988.94
2018-11-07T03:51:36.001Z,988.91
2018-11-07T03:52:35.975Z,988.89
2018-11-07T03:53:35.956Z,988.90
2018-11-07T03:54:35.934Z,988.90
2018-11-07T03:55:35.908Z,988.87
2018-11-07T03:56:35.886Z,988.88
2018-11-07T03:57:35.870Z,988.89
2018-11-07T03:58:35.834Z,988.84
2018-11-07T03:59:35.824Z,988.86
2018-11-07T04:00:35.791Z,988.88
2018-11-07T04:01:35.767Z,988.85
2018-11-07T04:02:35.753Z,988.83
2018-11-07T04:03:35.726Z,988.83
2018-11-07T04:04:35.701Z,988.83
2018-11-07T04:05:35.681Z,988.81
2018-11-07T04:06:35.658Z,988.81
2018-11-07T04:07:35.629Z,988.77
2018-11-07T04:08:35.615Z,988.77
2018-11-07T04:09:35.581Z,988.79
2018-11-07T04:10:35.566Z,988.77
2018-11-07T04:11:35.533Z,988.77
2018-11-07T04:12:35.511Z,988.73
2018-11-07T04:13:35.489Z,988.73
2018-11-07T04:14:35.464Z,988.70
2018-11-07T04:15:35.454Z,988.70
2018-11-07T04:16:35.431Z,988.72
2018-11-07T04:17:35.401Z,988.70
2018-11-07T04:18:35.378Z,988.71
2018-11-07T04:19:35.354Z,988.70
2018-11-07T04:20:35.336Z,988.65
2018-11-07T04:21:35.314Z,988.70
2018-11-07T04:22:35.282Z,988.68
2018-11-07T04:23:35.260Z,988.69
2018-11-07T04:24:35.237Z,988.65
2018-11-07T04:25:35.212Z,988.66
2018-11-07T04:26:35.197Z,988.65
2018-11-07T04:27:35.175Z,988.64
2018-11-07T04:28:35.145Z,988.68
2018-11-07T04:29:35.123Z,988.71
2018-11-07T04:30:35.104Z,988.69
2018-11-07T04:31:35.074Z,988.73
2018-11-07T04:32:35.052Z,988.68
2018-11-07T04:33:35.033Z,988.65
2018-11-07T04:34:35.005Z,988.63
2018-11-07T04:35:34.998Z,988.66
2018-11-07T04:36:34.960Z,988.64
2018-11-07T04:37:34.938Z,988.61
2018-11-07T04:38:34.915Z,988.61
2018-11-07T04:39:34.892Z,988.60
2018-11-07T04:40:34.870Z,988.59
2018-11-07T04:41:34.848Z,988.61
2018-11-07T04:42:34.819Z,988.59
2018-11-07T04:43:34.797Z,988.63
2018-11-07T04:44:34.775Z,988.64
2018-11-07T04:45:34.762Z,988.64
2018-11-07T04:46:34.733Z,988.65
2018-11-07T04:47:34.705Z,988.64
2018-11-07T04:48:34.691Z,988.65
2018-11-07T04:49:34.675Z,988.71
2018-11-07T04:50:34.635Z,988.65
2018-11-07T04:51:34.616Z,988.66
2018-11-07T04:52:34.588Z,988.70
2018-11-07T04:53:34.568Z,988.68
2018-11-07T04:54:34.542Z,988.64
2018-11-07T04:55:34.516Z,988.69
2018-11-07T04:56:34.507Z,988.72
2018-11-07T04:57:34.479Z,988.69
2018-11-07T04:58:34.455Z,988.71
2018-11-07T04:59:34.431Z,988.72
2018-11-07T05:00:34.402Z,988.65
2018-11-07T05:01:34.380Z,988.68
2018-11-07T05:02:34.364Z,988.70
2018-11-07T05:03:34.333Z,988.72
2018-11-07T05:04:34.307Z,988.74
2018-11-07T05:05:34.288Z,988.72
2018-11-07T05:06:34.261Z,988.69
2018-11-07T05:07:34.238Z,988.72
2018-11-07T05:08:34.263Z,988.69
2018-11-07T05:09:34.200Z,988.69
2018-11-07T05:10:34.172Z,988.73
2018-11-07T05:11:34.145Z,988.77
2018-11-07T05:12:34.136Z,988.84
2018-11-07T05:13:34.100Z,988.76
2018-11-07T05:14:34.082Z,988.76
2018-11-07T05:15:34.054Z,988.81
2018-11-07T05:16:34.034Z,988.80
2018-11-07T05:17:34.017Z,988.77
2018-11-07T05:18:33.989Z,988.77
2018-11-07T05:19:33.973Z,988.79
2018-11-07T05:20:33.929Z,988.84
2018-11-07T05:21:33.917Z,988.84
2018-11-07T05:22:33.887Z,988.82
2018-11-07T05:23:33.878Z,988.82
2018-11-07T05:24:33.838Z,988.86
2018-11-07T05:25:33.820Z,988.86
2018-11-07T05:26:33.790Z,988.85
2018-11-07T05:27:33.772Z,988.81
2018-11-07T05:28:33.756Z,988.86
2018-11-07T05:29:33.726Z,988.82
2018-11-07T05:30:33.701Z,988.83
2018-11-07T05:31:33.698Z,988.85
2018-11-07T05:32:33.662Z,988.85
2018-11-07T05:33:33.633Z,988.87
2018-11-07T05:34:33.608Z,988.87
2018-11-07T05:35:33.591Z,988.90
2018-11-07T05:36:33.563Z,988.93
2018-11-07T05:37:33.541Z,988.94
2018-11-07T05:38:33.515Z,988.94
2018-11-07T05:39:33.496Z,988.95
2018-11-07T05:40:33.467Z,988.95
2018-11-07T05:41:33.457Z,988.98
2018-11-07T05:42:33.425Z,989.01
2018-11-07T05:43:33.406Z,988.97
2018-11-07T05:44:33.373Z,989.00
2018-11-07T05:45:33.358Z,989.01
2018-11-07T05:46:33.329Z,989.03
2018-11-07T05:47:33.307Z,989.03
2018-11-07T05:48:33.288Z,989.04
2018-11-07T05:49:33.255Z,989.07
2018-11-07T05:50:33.230Z,989.03
2018-11-07T05:51:33.223Z,989.03
2018-11-07T05:52:33.217Z,988.99
2018-11-07T05:53:33.169Z,989.01
2018-11-07T05:54:33.150Z,988.96
2018-11-07T05:55:33.111Z,988.98
2018-11-07T05:56:33.098Z,989.04
2018-11-07T05:57:33.079Z,989.10
2018-11-07T05:58:33.052Z,989.09
2018-11-07T05:59:33.033Z,989.08
2018-11-07T06:00:33.001Z,989.02
2018-11-07T06:01:32.979Z,989.03
2018-11-07T06:02:32.959Z,989.05
2018-11-07T06:03:32.928Z,989.10
2018-11-07T06:04:32.908Z,989.14
2018-11-07T06:05:32.882Z,989.08
2018-11-07T06:06:32.860Z,989.09
2018-11-07T06:07:32.836Z,989.07
2018-11-07T06:08:32.808Z,989.06
2018-11-07T06:09:32.787Z,989.08
2018-11-07T06:10:32.768Z,989.08
2018-11-07T06:11:32.736Z,989.07
2018-11-07T06:12:32.720Z,989.11
2018-11-07T06:13:32.697Z,989.13
2018-11-07T06:14:32.672Z,989.14
2018-11-07T06:15:32.647Z,989.16
2018-11-07T06:16:32.631Z,989.15
2018-11-07T06:17:32.596Z,989.13
2018-11-07T06:18:32.579Z,989.16
2018-11-07T06:19:32.557Z,989.20
2018-11-07T06:20:32.532Z,989.20
2018-11-07T06:21:32.502Z,989.20
2018-11-07T06:22:32.480Z,989.15
2018-11-07T06:23:32.470Z,989.23
2018-11-07T06:24:32.523Z,989.20
2018-11-07T06:25:32.411Z,989.21
2018-11-07T06:26:32.391Z,989.30
2018-11-07T06:27:32.372Z,989.31
2018-11-07T06:28:32.361Z,989.32
2018-11-07T06:29:32.327Z,989.34
2018-11-07T06:30:32.292Z,989.34
2018-11-07T06:31:32.276Z,989.31
2018-11-07T06:32:32.257Z,989.31
2018-11-07T06:33:32.229Z,989.35
2018-11-07T06:34:32.204Z,989.31
2018-11-07T06:35:32.179Z,989.31
2018-11-07T06:36:32.156Z,989.38
2018-11-07T06:37:32.127Z,989.38
2018-11-07T06:38:32.108Z,989.39
2018-11-07T06:39:32.079Z,989.44
2018-11-07T06:40:32.057Z,989.48
2018-11-07T06:41:32.038Z,989.44
2018-11-07T06:42:32.015Z,989.47
2018-11-07T06:43:31.996Z,989.45
2018-11-07T06:44:32.019Z,989.49
2018-11-07T06:45:31.945Z,989.49
2018-11-07T06:46:31.920Z,989.48
2018-11-07T06:47:31.897Z,989.47
2018-11-07T06:48:31.878Z,989.49
2018-11-07T06:49:31.858Z,989.48
2018-11-07T06:50:31.826Z,989.49
2018-11-07T06:51:31.807Z,989.45
2018-11-07T06:52:31.781Z,989.51
2018-11-07T06:53:31.758Z,989.48
2018-11-07T06:54:31.740Z,989.45
2018-11-07T06:55:31.720Z,989.44
2018-11-07T06:56:31.695Z,989.48
2018-11-07T06:57:31.664Z,989.48
2018-11-07T06:58:31.651Z,989.43
2018-11-07T06:59:31.626Z,989.41
2018-11-07T07:00:31.607Z,989.47
2018-11-07T07:01:31.648Z,989.51
2018-11-07T07:02:31.556Z,989.47
2018-11-07T07:03:31.561Z,989.50
2018-11-07T07:04:31.514Z,989.47
2018-11-07T07:05:31.488Z,989.48
2018-11-07T07:06:31.462Z,989.53
2018-11-07T07:07:31.451Z,989.48
2018-11-07T07:08:31.417Z,989.50
2018-11-07T07:09:31.398Z,989.50
2018-11-07T07:10:31.394Z,989.49
2018-11-07T07:11:31.347Z,989.49
2018-11-07T07:12:31.353Z,989.57
2018-11-07T07:13:31.308Z,989.55
2018-11-07T07:14:31.286Z,989.58
2018-11-07T07:15:31.264Z,989.54
2018-11-07T07:16:31.240Z,989.61
2018-11-07T07:17:31.267Z,989.61
2018-11-07T07:18:31.206Z,989.56
2018-11-07T07:19:31.177Z,989.58
2018-11-07T07:20:31.144Z,989.56
2018-11-07T07:21:31.141Z,989.53
2018-11-07T07:22:31.113Z,989.51
2018-11-07T07:23:31.080Z,989.52
2018-11-07T07:24:31.063Z,989.52
2018-11-07T07:25:31.043Z,989.49
2018-11-07T07:26:31.016Z,989.50
2018-11-07T07:27:30.984Z,989.47
2018-11-07T07:28:30.968Z,989.51
2018-11-07T07:29:30.945Z,989.52
2018-11-07T07:30:30.935Z,989.48
2018-11-07T07:31:30.907Z,989.50
2018-11-07T07:32:30.895Z,989.48
2018-11-07T07:33:30.952Z,989.46
2018-11-07T07:34:30.860Z,989.51
2018-11-07T07:35:30.813Z,989.54
2018-11-07T07:36:30.789Z,989.57
2018-11-07T07:37:30.766Z,989.59
2018-11-07T07:38:30.763Z,989.56
2018-11-07T07:39:30.721Z,989.57
2018-11-07T07:40:30.699Z,989.55
2018-11-07T07:41:30.696Z,989.56
2018-11-07T07:42:30.673Z,989.55
2018-11-07T07:43:30.637Z,989.53
2018-11-07T07:44:30.621Z,989.57
2018-11-07T07:45:30.622Z,989.58
2018-11-07T07:46:30.560Z,989.55
2018-11-07T07:47:30.544Z,989.60
2018-11-07T07:48:30.515Z,989.60
2018-11-07T07:49:30.516Z,989.56
2018-11-07T07:50:30.478Z,989.56
2018-11-07T07:51:30.465Z,989.50
2018-11-07T07:52:30.468Z,989.51
2018-11-07T07:53:30.418Z,989.49
2018-11-07T07:54:30.388Z,989.49
2018-11-07T07:55:30.375Z,989.49
2018-11-07T07:56:30.343Z,989.53
2018-11-07T07:57:30.324Z,989.56
2018-11-07T07:58:30.308Z,989.55
2018-11-07T07:59:30.295Z,989.54
2018-11-07T08:00:30.273Z,989.54
2018-11-07T08:01:30.228Z,989.52
2018-11-07T08:02:30.219Z,989.54
2018-11-07T08:03:30.187Z,989.55
2018-11-07T08:04:30.166Z,989.58
2018-11-07T08:05:30.151Z,989.55
2018-11-07T08:06:30.151Z,989.55
2018-11-07T08:07:30.104Z,989.57
2018-11-07T08:08:30.081Z,989.61
2018-11-07T08:09:30.062Z,989.58
2018-11-07T08:10:30.068Z,989.63
2018-11-07T08:11:30.040Z,989.61
2018-11-07T08:12:29.995Z,989.60
2018-11-07T08:13:30.031Z,989.63
2018-11-07T08:14:29.960Z,989.68
2018-11-07T08:15:29.944Z,989.73
2018-11-07T08:16:29.918Z,989.71
2018-11-07T08:17:29.893Z,989.70
2018-11-07T08:18:29.870Z,989.70
2018-11-07T08:19:29.860Z,989.63
2018-11-07T08:20:29.856Z,989.67
2018-11-07T08:21:29.821Z,989.66
2018-11-07T08:22:29.792Z,989.66
2018-11-07T08:23:29.779Z,989.67
2018-11-07T08:24:29.754Z,989.65
2018-11-07T08:25:29.741Z,989.67
2018-11-07T08:26:29.711Z,989.67
2018-11-07T08:27:29.693Z,989.65
2018-11-07T08:28:29.681Z,989.66
2018-11-07T08:29:29.668Z,989.63
2018-11-07T08:30:29.646Z,989.63
2018-11-07T08:31:29.626Z,989.61
2018-11-07T08:32:29.610Z,989.65
2018-11-07T08:33:29.600Z,989.62
2018-11-07T08:34:29.571Z,989.61
2018-11-07T08:35:29.553Z,989.59
2018-11-07T08:36:29.530Z,989.62
2018-11-07T08:37:29.511Z,989.62
2018-11-07T08:38:29.496Z,989.65
2018-11-07T08:39:29.482Z,989.66
2018-11-07T08:40:29.459Z,989.63
2018-11-07T08:41:29.440Z,989.63
2018-11-07T08:42:29.468Z,989.64
2018-11-07T08:43:29.414Z,989.64
2018-11-07T08:44:29.382Z,989.64
2018-11-07T08:45:29.380Z,989.66
2018-11-07T08:46:29.350Z,989.62
2018-11-07T08:47:29.334Z,989.65
2018-11-07T08:48:29.344Z,989.64
2018-11-07T08:49:29.305Z,989.66
2018-11-07T08:50:29.286Z,989.67
2018-11-07T08:51:29.265Z,989.67
2018-11-07T08:52:29.249Z,989.68
2018-11-07T08:53:29.233Z,989.66
2018-11-07T08:54:29.253Z,989.69
2018-11-07T08:55:29.201Z,989.70
2018-11-07T08:56:29.189Z,989.66
2018-11-07T08:57:29.162Z,989.66
2018-11-07T08:58:29.159Z,989.67
2018-11-07T08:59:29.125Z,989.65
2018-11-07T09:00:29.108Z,989.66
2018-11-07T09:01:29.137Z,989.69
2018-11-07T09:02:29.079Z,989.64
2018-11-07T09:03:29.060Z,989.64
2018-11-07T09:04:29.040Z,989.66
2018-11-07T09:05:29.027Z,989.64
2018-11-07T09:06:29.009Z,989.63
2018-11-07T09:07:28.992Z,989.63
2018-11-07T09:08:28.970Z,989.63
2018-11-07T09:09:28.950Z,989.55
2018-11-07T09:10:28.928Z,989.59
2018-11-07T09:11:28.922Z,989.60
2018-11-07T09:12:28.903Z,989.62
2018-11-07T09:13:28.881Z,989.58
2018-11-07T09:14:28.871Z,989.60
2018-11-07T09:15:28.851Z,989.62
2018-11-07T09:16:28.831Z,989.61
2018-11-07T09:17:28.822Z,989.60
2018-11-07T09:18:28.790Z,989.62
2018-11-07T09:19:28.777Z,989.59
2018-11-07T09:20:28.758Z,989.59
2018-11-07T09:21:28.736Z,989.64
2018-11-07T09:22:28.723Z,989.65
2018-11-07T09:23:28.706Z,989.67
2018-11-07T09:24:28.736Z,989.68
2018-11-07T09:25:28.690Z,989.66
2018-11-07T09:26:28.720Z,989.68
2018-11-07T09:27:28.707Z,989.67
2018-11-07T09:28:28.678Z,989.71
2018-11-07T09:29:28.611Z,989.75
2018-11-07T09:30:28.585Z,989.77
2018-11-07T09:31:28.585Z,989.75
2018-11-07T09:32:28.562Z,989.81
2018-11-07T09:33:28.534Z,989.84
2018-11-07T09:34:28.506Z,989.75
2018-11-07T09:35:28.496Z,989.78
2018-11-07T09:36:28.479Z,989.78
2018-11-07T09:37:28.453Z,989.82
2018-11-07T09:38:28.454Z,989.79
2018-11-07T09:39:28.474Z,989.80
2018-11-07T09:40:28.412Z,989.83
2018-11-07T09:41:28.397Z,989.83
2018-11-07T09:42:28.382Z,989.83
2018-11-07T09:43:28.361Z,989.85
2018-11-07T09:44:28.361Z,989.83
2018-11-07T09:45:28.322Z,989.86
2018-11-07T09:46:28.316Z,989.88
2018-11-07T09:47:28.328Z,989.82
2018-11-07T09:48:28.278Z,989.86
2018-11-07T09:49:28.263Z,989.80
2018-11-07T09:50:28.250Z,989.83
2018-11-07T09:51:28.263Z,989.81
2018-11-07T09:52:28.228Z,989.81
2018-11-07T09:53:28.210Z,989.83
2018-11-07T09:54:28.185Z,989.83
2018-11-07T09:55:28.177Z,989.81
2018-11-07T09:56:28.156Z,989.81
2018-11-07T09:57:28.148Z,989.82
2018-11-07T09:58:28.132Z,989.83
2018-11-07T09:59:28.132Z,989.81
2018-11-07T10:00:28.105Z,989.81
2018-11-07T10:01:28.116Z,989.80
2018-11-07T10:02:28.075Z,989.80
2018-11-07T10:03:28.056Z,989.84
2018-11-07T10:04:28.052Z,989.82
2018-11-07T10:05:28.077Z,989.81
2018-11-07T10:06:28.059Z,989.83
2018-11-07T10:07:28.005Z,989.86
2018-11-07T10:08:27.992Z,989.88
2018-11-07T10:09:27.989Z,989.87
2018-11-07T10:10:27.969Z,989.88
2018-11-07T10:11:27.960Z,989.85
2018-11-07T10:12:28.026Z,989.81
2018-11-07T10:13:27.944Z,989.82
2018-11-07T10:14:27.925Z,989.86
2018-11-07T10:15:27.909Z,989.82
2018-11-07T10:16:27.912Z,989.85
2018-11-07T10:17:27.893Z,989.81
2018-11-07T10:18:27.884Z,989.77
2018-11-07T10:19:27.869Z,989.78
2018-11-07T10:20:27.878Z,989.76
2018-11-07T10:21:27.851Z,989.77
2018-11-07T10:22:27.832Z,989.80
2018-11-07T10:23:27.835Z,989.76
2018-11-07T10:24:27.807Z,989.78
2018-11-07T10:25:27.797Z,989.80
2018-11-07T10:26:27.784Z,989.79
2018-11-07T10:27:28.042Z,989.79
2018-11-07T10:28:27.973Z,989.79
2018-11-07T10:29:28.025Z,989.79
2018-11-07T10:30:27.830Z,989.75
2018-11-07T10:31:27.740Z,989.74
2018-11-07T10:32:27.727Z,989.76
2018-11-07T10:33:27.717Z,989.74
2018-11-07T10:34:27.721Z,989.75
2018-11-07T10:35:27.692Z,989.73
2018-11-07T10:36:27.686Z,989.74
2018-11-07T10:37:32.369Z,989.73
2018-11-07T10:38:27.742Z,989.72
2018-11-07T10:39:27.653Z,989.71
2018-11-07T10:40:27.711Z,989.74
2018-11-07T10:41:27.638Z,989.73
2018-11-07T10:42:27.631Z,989.73
2018-11-07T10:43:27.615Z,989.71
2018-11-07T10:44:27.640Z,989.68
2018-11-07T10:45:27.609Z,989.64
2018-11-07T10:46:27.587Z,989.65
2018-11-07T10:47:27.587Z,989.62
2018-11-07T10:48:27.586Z,989.61
2018-11-07T10:49:27.564Z,989.64
2018-11-07T10:50:27.561Z,989.63
2018-11-07T10:51:27.538Z,989.66
2018-11-07T10:52:27.529Z,989.65
2018-11-07T10:53:27.550Z,989.61
2018-11-07T10:54:27.513Z,989.68
2018-11-07T10:55:27.503Z,989.69
2018-11-07T10:56:27.496Z,989.70
2018-11-07T10:57:27.491Z,989.70
2018-11-07T10:58:27.487Z,989.68
2018-11-07T10:59:27.471Z,989.66
2018-11-07T11:00:27.481Z,989.66
2018-11-07T11:01:27.498Z,989.63
2018-11-07T11:02:27.447Z,989.63
2018-11-07T11:03:27.435Z,989.61
2018-11-07T11:04:27.428Z,989.61
2018-11-07T11:05:27.435Z,989.61
2018-11-07T11:06:27.412Z,989.60
2018-11-07T11:07:27.402Z,989.60
2018-11-07T11:08:27.393Z,989.60
2018-11-07T11:09:27.377Z,989.62
2018-11-07T11:10:27.370Z,989.63
2018-11-07T11:11:27.410Z,989.63
2018-11-07T11:12:27.360Z,989.57
2018-11-07T11:13:27.358Z,989.61
2018-11-07T11:14:27.335Z,989.60
2018-11-07T11:15:27.361Z,989.57
2018-11-07T11:16:27.326Z,989.57
2018-11-07T11:17:27.387Z,989.58
2018-11-07T11:18:27.310Z,989.60
2018-11-07T11:19:27.339Z,989.56
2018-11-07T11:20:27.293Z,989.56
2018-11-07T11:21:27.289Z,989.52
2018-11-07T11:22:27.306Z,989.51
2018-11-07T11:23:27.266Z,989.49
2018-11-07T11:24:27.259Z,989.51
2018-11-07T11:25:27.246Z,989.55
2018-11-07T11:26:27.250Z,989.51
2018-11-07T11:27:27.342Z,989.48
2018-11-07T11:28:27.229Z,989.50
2018-11-07T11:29:27.212Z,989.50
2018-11-07T11:30:27.212Z,989.51
2018-11-07T11:31:27.242Z,989.51
2018-11-07T11:32:27.185Z,989.44
2018-11-07T11:33:27.189Z,989.45
2018-11-07T11:34:27.231Z,989.50
2018-11-07T11:35:27.235Z,989.53
2018-11-07T11:36:27.159Z,989.52
2018-11-07T11:37:27.147Z,989.49
2018-11-07T11:38:27.138Z,989.50
2018-11-07T11:39:27.147Z,989.44
2018-11-07T11:40:27.130Z,989.47
2018-11-07T11:41:27.102Z,989.48
2018-11-07T11:42:27.093Z,989.43
2018-11-07T11:43:27.080Z,989.42
2018-11-07T11:44:27.071Z,989.46
2018-11-07T11:45:27.066Z,989.48
2018-11-07T11:46:27.047Z,989.49
2018-11-07T11:47:27.040Z,989.49
2018-11-07T11:48:27.032Z,989.47
2018-11-07T11:49:27.025Z,989.46
2018-11-07T11:50:27.009Z,989.45
2018-11-07T11:51:27.002Z,989.47
2018-11-07T11:52:26.983Z,989.52
2018-11-07T11:53:27.015Z,989.48
2018-11-07T11:54:26.970Z,989.50
2018-11-07T11:55:26.967Z,989.49
2018-11-07T11:56:26.973Z,989.47
2018-11-07T11:57:26.944Z,989.45
2018-11-07T11:58:26.944Z,989.48
2018-11-07T11:59:27.070Z,989.45
2018-11-07T12:00:26.953Z,989.49
2018-11-07T12:01:26.906Z,989.47
2018-11-07T12:02:26.897Z,989.46
2018-11-07T12:03:26.887Z,989.45
2018-11-07T12:04:26.880Z,989.47
2018-11-07T12:05:26.871Z,989.47
2018-11-07T12:06:26.869Z,989.45
2018-11-07T12:07:26.850Z,989.47
2018-11-07T12:08:26.936Z,989.42
2018-11-07T12:09:26.834Z,989.43
2018-11-07T12:10:26.833Z,989.45
2018-11-07T12:11:26.866Z,989.44
2018-11-07T12:12:26.815Z,989.42
2018-11-07T12:13:26.903Z,989.42
2018-11-07T12:14:26.798Z,989.44
2018-11-07T12:15:26.903Z,989.44
2018-11-07T12:16:26.776Z,989.44
2018-11-07T12:17:26.767Z,989.49
2018-11-07T12:18:26.796Z,989.49
2018-11-07T12:19:26.796Z,989.50
2018-11-07T12:20:26.757Z,989.51
2018-11-07T12:21:26.815Z,989.53
2018-11-07T12:22:26.745Z,989.52
2018-11-07T12:23:26.719Z,989.54
2018-11-07T12:24:26.709Z,989.54
2018-11-07T12:25:26.716Z,989.50
2018-11-07T12:26:26.713Z,989.52
2018-11-07T12:27:26.690Z,989.49
2018-11-07T12:28:26.691Z,989.45